createdAt,value
2017-07-04T00:01:57.531Z,3.80
2017-07-04T00:04:25.599Z,7.90
2017-07-04T00:06:53.660Z,6.80
2017-07-04T00:09:21.746Z,5.30
2017-07-04T00:11:49.802Z,5.20
2017-07-04T00:14:17.903Z,7.87
2017-07-04T00:16:45.979Z,7.20
2017-07-04T00:19:14.806Z,11.70
2017-07-04T00:21:42.891Z,3.87
2017-07-04T00:24:10.966Z,3.40
2017-07-04T00:26:39.165Z,5.20
2017-07-04T00:29:07.214Z,6.87
2017-07-04T00:31:35.304Z,4.90
2017-07-04T00:34:03.351Z,5.80
2017-07-04T00:36:31.420Z,3.63
2017-07-04T00:38:59.571Z,3.83
2017-07-04T00:41:28.386Z,5.80
2017-07-04T00:43:56.443Z,5.57
2017-07-04T00:46:24.499Z,4.23
2017-07-04T00:48:52.594Z,7.10
2017-07-04T00:51:20.685Z,9.70
2017-07-04T00:53:48.738Z,4.23
2017-07-04T00:56:16.819Z,4.93
2017-07-04T00:58:44.903Z,5.10
2017-07-04T01:01:12.985Z,5.77
2017-07-04T01:03:41.035Z,4.67
2017-07-04T01:06:09.106Z,5.13
2017-07-04T01:08:37.163Z,4.20
2017-07-04T01:11:05.239Z,6.60
2017-07-04T01:13:33.287Z,5.03
2017-07-04T01:16:01.415Z,4.73
2017-07-04T01:18:30.254Z,6.53
2017-07-04T01:20:58.482Z,5.73
2017-07-04T01:23:27.311Z,4.20
2017-07-04T01:25:55.354Z,8.50
2017-07-04T01:28:24.193Z,6.00
2017-07-04T01:30:52.239Z,6.60
2017-07-04T01:33:21.202Z,6.00
2017-07-04T01:35:50.023Z,6.57
2017-07-04T01:38:18.086Z,6.53
2017-07-04T01:40:46.159Z,10.40
2017-07-04T01:43:14.210Z,8.83
2017-07-04T01:45:43.066Z,5.20
2017-07-04T01:48:11.124Z,6.83
2017-07-04T01:50:39.200Z,7.30
2017-07-04T01:53:07.274Z,5.93
2017-07-04T01:55:35.345Z,6.07
2017-07-04T01:58:03.391Z,7.53
2017-07-04T02:00:31.459Z,9.40
2017-07-04T02:02:59.524Z,7.40
2017-07-04T02:05:27.606Z,11.53
2017-07-04T02:07:55.691Z,6.17
2017-07-04T02:10:23.745Z,9.30
2017-07-04T02:12:51.814Z,7.17
2017-07-04T02:15:19.878Z,7.40
2017-07-04T02:17:47.972Z,9.40
2017-07-04T02:20:16.038Z,7.37
2017-07-04T02:22:44.122Z,8.73
2017-07-04T02:25:12.191Z,10.27
2017-07-04T02:27:41.034Z,12.13
2017-07-04T02:30:09.107Z,12.60
2017-07-04T02:32:37.182Z,12.73
2017-07-04T02:35:05.247Z,9.47
2017-07-04T02:37:33.307Z,8.73
2017-07-04T02:40:01.382Z,9.03
2017-07-04T02:42:29.443Z,7.90
2017-07-04T02:44:57.532Z,6.93
2017-07-04T02:47:25.591Z,7.20
2017-07-04T02:49:53.639Z,8.83
2017-07-04T02:52:21.709Z,8.87
2017-07-04T02:54:50.532Z,7.27
2017-07-04T02:57:18.611Z,9.50
2017-07-04T02:59:46.662Z,8.07
2017-07-04T03:02:14.710Z,8.40
2017-07-04T03:04:42.807Z,13.20
2017-07-04T03:07:10.856Z,7.00
2017-07-04T03:09:38.906Z,8.73
2017-07-04T03:12:07.732Z,8.77
2017-07-04T03:14:35.783Z,10.40
2017-07-04T03:17:03.875Z,11.93
2017-07-04T03:19:31.954Z,12.80
2017-07-04T03:22:00.015Z,12.50
2017-07-04T03:24:28.096Z,12.30
2017-07-04T03:26:56.179Z,13.03
2017-07-04T03:29:24.996Z,12.00
2017-07-04T03:31:53.059Z,12.47
2017-07-04T03:34:21.907Z,12.47
2017-07-04T03:36:49.958Z,14.13
2017-07-04T03:39:18.043Z,16.40
2017-07-04T03:41:46.103Z,12.77
2017-07-04T03:44:14.159Z,13.07
2017-07-04T03:46:43.186Z,15.10
2017-07-04T03:49:11.280Z,11.73
2017-07-04T03:51:40.129Z,11.87
2017-07-04T03:54:08.183Z,14.23
2017-07-04T03:56:36.262Z,17.57
2017-07-04T03:59:04.326Z,16.23
2017-07-04T04:01:32.395Z,11.30
2017-07-04T04:04:00.526Z,11.97
2017-07-04T04:06:29.364Z,15.90
2017-07-04T04:08:57.438Z,11.87
2017-07-04T04:11:25.506Z,16.60
2017-07-04T04:13:53.576Z,16.30
2017-07-04T04:16:21.758Z,16.83
2017-07-04T04:18:49.843Z,17.43
2017-07-04T04:21:17.946Z,22.63
2017-07-04T04:23:46.027Z,22.17
2017-07-04T04:26:14.098Z,17.63
2017-07-04T04:28:42.165Z,18.67
2017-07-04T04:31:10.339Z,22.27
2017-07-04T04:33:38.411Z,22.87
2017-07-04T04:36:06.480Z,23.63
2017-07-04T04:38:34.567Z,18.60
2017-07-04T04:41:02.622Z,24.37
2017-07-04T04:43:30.711Z,22.40
2017-07-04T04:45:59.556Z,21.33
2017-07-04T04:48:27.619Z,23.90
2017-07-04T04:50:55.703Z,20.53
2017-07-04T04:53:23.780Z,20.07
2017-07-04T04:55:51.870Z,23.47
2017-07-04T04:58:19.939Z,29.00
2017-07-04T05:00:47.990Z,22.67
2017-07-04T05:03:16.063Z,24.07
2017-07-04T05:05:44.132Z,22.80
2017-07-04T05:08:12.225Z,24.13
2017-07-04T05:10:40.298Z,21.07
2017-07-04T05:13:08.374Z,26.90
2017-07-04T05:15:36.487Z,26.97
2017-07-04T05:18:04.567Z,21.90
2017-07-04T05:20:32.641Z,25.77
2017-07-04T05:23:00.715Z,26.47
2017-07-04T05:25:28.765Z,30.30
2017-07-04T05:27:56.847Z,28.80
2017-07-04T05:30:24.913Z,34.00
2017-07-04T05:32:52.979Z,31.03
2017-07-04T05:35:21.058Z,28.00
2017-07-04T05:37:49.128Z,32.63
2017-07-04T05:40:17.226Z,33.53
2017-07-04T05:42:46.052Z,33.20
2017-07-04T05:45:14.114Z,27.13
2017-07-04T05:47:42.196Z,33.07
2017-07-04T05:50:10.277Z,29.13
2017-07-04T05:52:38.367Z,28.40
2017-07-04T05:57:40.927Z,27.97
2017-07-04T06:00:09.019Z,30.83
2017-07-04T06:02:37.102Z,33.93
2017-07-04T06:05:05.175Z,29.60
2017-07-04T06:07:33.254Z,29.50
2017-07-04T06:10:01.322Z,34.70
2017-07-04T06:12:29.403Z,32.00
2017-07-04T06:14:57.505Z,27.33
2017-07-04T06:17:25.597Z,33.30
2017-07-04T06:19:53.670Z,28.63
2017-07-04T06:22:21.755Z,24.83
2017-07-04T06:24:49.840Z,29.90
2017-07-04T06:27:17.899Z,31.30
2017-07-04T06:29:45.995Z,28.73
2017-07-04T06:32:14.070Z,22.43
2017-07-04T06:34:42.218Z,26.50
2017-07-04T06:37:11.027Z,26.17
2017-07-04T06:39:39.099Z,24.07
2017-07-04T06:42:07.175Z,23.30
2017-07-04T06:44:35.251Z,31.70
2017-07-04T06:47:04.237Z,27.70
2017-07-04T06:49:32.338Z,31.00
2017-07-04T06:52:00.394Z,30.43
2017-07-04T06:54:28.447Z,36.83
2017-07-04T06:56:56.536Z,30.57
2017-07-04T06:59:24.590Z,28.00
2017-07-04T07:01:52.667Z,30.97
2017-07-04T07:04:20.739Z,31.00
2017-07-04T07:06:48.959Z,27.90
2017-07-04T07:09:17.039Z,25.07
2017-07-04T07:11:45.111Z,26.53
2017-07-04T07:14:13.168Z,29.50
2017-07-04T07:16:42.023Z,27.27
2017-07-04T07:19:10.080Z,23.00
2017-07-04T07:21:38.171Z,21.93
2017-07-04T07:26:41.531Z,24.17
2017-07-04T07:29:09.615Z,23.90
2017-07-04T07:31:37.687Z,35.27
2017-07-04T07:34:05.796Z,31.27
2017-07-04T07:36:34.650Z,35.03
2017-07-04T07:39:02.729Z,32.83
2017-07-04T07:41:30.793Z,34.87
2017-07-04T07:43:58.873Z,38.40
2017-07-04T07:46:26.930Z,39.33
2017-07-04T07:48:55.004Z,41.80
2017-07-04T07:51:23.090Z,48.47
2017-07-04T07:53:51.151Z,43.17
2017-07-04T07:56:19.240Z,39.73
2017-07-04T07:58:47.310Z,42.47
2017-07-04T08:01:15.392Z,47.17
2017-07-04T08:03:43.504Z,49.53
2017-07-04T08:06:11.572Z,42.00
2017-07-04T08:08:39.646Z,45.47
2017-07-04T08:11:07.733Z,43.03
2017-07-04T08:13:35.795Z,40.97
2017-07-04T08:16:03.867Z,43.10
2017-07-04T08:18:31.955Z,41.23
2017-07-04T08:21:00.028Z,43.60
2017-07-04T08:23:30.552Z,38.30
2017-07-04T08:25:59.611Z,39.60
2017-07-04T08:28:27.684Z,40.37
2017-07-04T08:30:55.778Z,52.90
2017-07-04T08:33:23.863Z,40.80
2017-07-04T08:35:51.948Z,42.57
2017-07-04T08:38:20.029Z,39.93
2017-07-04T08:40:48.094Z,37.63
2017-07-04T08:43:16.168Z,37.20
2017-07-04T08:45:45.012Z,37.50
2017-07-04T08:48:13.071Z,39.20
2017-07-04T08:50:41.178Z,36.07
2017-07-04T08:53:09.266Z,37.77
2017-07-04T08:55:37.336Z,38.03
2017-07-04T08:58:05.409Z,34.13
2017-07-04T09:00:33.482Z,35.37
2017-07-04T09:03:01.564Z,32.57
2017-07-04T09:05:30.406Z,32.83
2017-07-04T09:07:58.512Z,31.93
2017-07-04T09:10:26.587Z,33.80
2017-07-04T09:12:54.652Z,32.73
2017-07-04T09:15:23.324Z,28.50
2017-07-04T09:17:51.408Z,30.10
2017-07-04T09:20:19.474Z,31.17
2017-07-04T09:22:47.571Z,30.20
2017-07-04T09:25:15.627Z,28.93
2017-07-04T09:27:44.211Z,26.83
2017-07-04T09:30:12.286Z,27.07
2017-07-04T09:32:40.355Z,29.23
2017-07-04T09:35:08.423Z,30.03
2017-07-04T09:37:36.504Z,28.37
2017-07-04T09:40:04.567Z,27.13
2017-07-04T09:42:32.639Z,26.07
2017-07-04T09:45:00.735Z,24.00
2017-07-04T09:47:29.564Z,21.93
2017-07-04T09:49:57.628Z,21.73
2017-07-04T09:52:25.707Z,22.10
2017-07-04T09:54:53.784Z,22.13
2017-07-04T09:57:21.859Z,23.27
2017-07-04T09:59:49.931Z,23.00
2017-07-04T10:02:18.003Z,21.13
2017-07-04T10:04:46.074Z,22.57
2017-07-04T10:07:14.140Z,21.63
2017-07-04T10:09:42.221Z,20.33
2017-07-04T10:12:10.296Z,22.43
2017-07-04T10:14:38.387Z,24.43
2017-07-04T10:17:06.467Z,22.57
2017-07-04T10:19:34.522Z,18.10
2017-07-04T10:22:02.611Z,16.70
2017-07-04T10:24:32.437Z,19.00
2017-07-04T10:27:01.296Z,20.10
2017-07-04T10:29:29.360Z,20.60
2017-07-04T10:31:57.412Z,28.67
2017-07-04T10:34:25.497Z,27.77
2017-07-04T10:36:53.552Z,28.00
2017-07-04T10:39:21.635Z,29.10
2017-07-04T10:41:49.706Z,30.97
2017-07-04T10:44:17.769Z,31.13
2017-07-04T10:46:45.850Z,34.90
2017-07-04T10:49:13.939Z,29.60
2017-07-04T10:51:41.991Z,30.60
2017-07-04T10:54:10.076Z,29.60
2017-07-04T10:56:38.145Z,28.33
2017-07-04T10:59:06.227Z,28.53
2017-07-04T11:01:34.280Z,29.30
2017-07-04T11:04:02.349Z,29.93
2017-07-04T11:06:30.418Z,29.10
2017-07-04T11:08:58.511Z,29.50
2017-07-04T11:11:26.634Z,27.60
2017-07-04T11:13:54.726Z,28.13
2017-07-04T11:16:22.795Z,29.23
2017-07-04T11:18:50.919Z,29.37
2017-07-04T11:21:19.770Z,29.23
2017-07-04T11:23:47.887Z,28.00
2017-07-04T11:26:15.947Z,25.90
2017-07-04T11:28:44.061Z,29.23
2017-07-04T11:31:12.126Z,29.50
2017-07-04T11:33:40.231Z,30.40
2017-07-04T11:36:08.306Z,29.93
2017-07-04T11:38:36.417Z,28.07
2017-07-04T11:41:04.467Z,28.83
2017-07-04T11:43:33.330Z,28.20
2017-07-04T11:46:01.397Z,27.60
2017-07-04T11:48:29.472Z,27.10
2017-07-04T11:50:57.550Z,27.40
2017-07-04T11:53:25.612Z,27.60
2017-07-04T11:55:53.709Z,24.57
2017-07-04T11:58:22.539Z,27.13
2017-07-04T12:00:50.639Z,25.30
2017-07-04T12:03:18.735Z,25.90
2017-07-04T12:05:47.589Z,24.03
2017-07-04T12:08:15.684Z,22.47
2017-07-04T12:10:43.728Z,23.73
2017-07-04T12:13:11.823Z,22.33
2017-07-04T12:15:39.895Z,25.23
2017-07-04T12:18:07.969Z,24.10
2017-07-04T12:20:37.669Z,23.20
2017-07-04T12:23:05.826Z,22.67
2017-07-04T12:25:33.876Z,25.23
2017-07-04T12:28:01.964Z,29.03
2017-07-04T12:30:30.038Z,30.30
2017-07-04T12:32:58.124Z,26.50
2017-07-04T12:35:26.946Z,26.20
2017-07-04T12:37:55.015Z,24.73
2017-07-04T12:40:23.095Z,23.40
2017-07-04T12:42:51.206Z,19.00
2017-07-04T12:45:19.294Z,20.10
2017-07-04T12:47:48.132Z,22.00
2017-07-04T12:50:16.230Z,18.03
2017-07-04T12:52:44.309Z,17.93
2017-07-04T12:55:12.381Z,19.93
2017-07-04T12:57:40.459Z,18.43
2017-07-04T13:00:08.540Z,21.83
2017-07-04T13:02:37.394Z,23.57
2017-07-04T13:05:05.455Z,23.03
2017-07-04T13:07:33.539Z,19.80
2017-07-04T13:10:01.625Z,19.87
2017-07-04T13:12:29.704Z,18.87
2017-07-04T13:14:57.783Z,21.33
2017-07-04T13:17:27.597Z,18.80
2017-07-04T13:19:55.663Z,18.97
2017-07-04T13:22:24.525Z,21.90
2017-07-04T13:24:52.616Z,19.80
2017-07-04T13:27:20.708Z,20.30
2017-07-04T13:29:48.771Z,19.17
2017-07-04T13:32:16.863Z,18.57
2017-07-04T13:34:45.729Z,17.83
2017-07-04T13:37:13.804Z,16.67
2017-07-04T13:39:41.888Z,16.60
2017-07-04T13:42:10.739Z,15.20
2017-07-04T13:44:38.810Z,16.73
2017-07-04T13:47:06.919Z,16.43
2017-07-04T13:49:35.747Z,19.33
2017-07-04T13:52:03.830Z,18.13
2017-07-04T13:54:31.915Z,16.87
2017-07-04T13:56:59.991Z,16.43
2017-07-04T13:59:28.087Z,17.07
2017-07-04T14:01:56.132Z,15.37
2017-07-04T14:04:24.210Z,12.83
2017-07-04T14:06:52.295Z,13.30
2017-07-04T14:09:20.355Z,17.33
2017-07-04T14:11:48.549Z,13.00
2017-07-04T14:14:18.156Z,12.23
2017-07-04T14:16:46.623Z,14.17
2017-07-04T14:19:14.716Z,13.00
2017-07-04T14:21:42.793Z,14.33
2017-07-04T14:24:11.628Z,15.20
2017-07-04T14:26:39.701Z,13.93
2017-07-04T14:29:07.771Z,14.90
2017-07-04T14:31:36.631Z,13.83
2017-07-04T14:34:04.703Z,17.47
2017-07-04T14:36:32.798Z,16.83
2017-07-04T14:39:00.865Z,19.07
2017-07-04T14:41:28.944Z,17.53
2017-07-04T14:43:57.037Z,16.80
2017-07-04T14:46:25.872Z,20.70
2017-07-04T14:48:53.941Z,17.33
2017-07-04T14:51:22.053Z,18.47
2017-07-04T14:53:50.108Z,19.03
2017-07-04T14:56:18.163Z,18.57
2017-07-04T14:58:46.267Z,15.80
2017-07-04T15:01:16.431Z,17.67
2017-07-04T15:03:44.496Z,16.80
2017-07-04T15:06:12.743Z,16.23
2017-07-04T15:08:41.567Z,16.03
2017-07-04T15:11:09.652Z,16.20
2017-07-04T15:13:37.741Z,14.63
2017-07-04T15:16:05.971Z,14.93
2017-07-04T15:18:34.030Z,14.90
2017-07-04T15:21:02.230Z,14.20
2017-07-04T15:23:30.290Z,14.40
2017-07-04T15:25:58.375Z,12.87
2017-07-04T15:28:26.465Z,11.90
2017-07-04T15:30:54.526Z,12.90
2017-07-04T15:33:22.600Z,13.60
2017-07-04T15:35:50.680Z,13.00
2017-07-04T15:38:18.748Z,12.33
2017-07-04T15:40:46.892Z,12.40
2017-07-04T15:43:14.961Z,12.97
2017-07-04T15:45:43.031Z,14.13
2017-07-04T15:48:11.134Z,13.30
2017-07-04T15:50:39.195Z,15.97
2017-07-04T15:53:07.264Z,12.83
2017-07-04T15:55:35.337Z,15.23
2017-07-04T15:58:03.390Z,17.43
2017-07-04T16:00:31.483Z,17.40
2017-07-04T16:02:59.574Z,17.00
2017-07-04T16:05:27.665Z,17.70
2017-07-04T16:07:56.509Z,14.67
2017-07-04T16:10:24.571Z,16.00
2017-07-04T16:12:52.652Z,15.30
2017-07-04T16:15:20.736Z,12.83
2017-07-04T16:17:48.815Z,15.37
2017-07-04T16:20:16.893Z,14.97
2017-07-04T16:22:44.983Z,13.93
2017-07-04T16:25:13.817Z,14.63
2017-07-04T16:27:41.896Z,17.13
2017-07-04T16:30:09.988Z,15.00
2017-07-04T16:32:38.052Z,16.97
2017-07-04T16:35:06.125Z,14.83
2017-07-04T16:37:34.236Z,16.80
2017-07-04T16:40:02.324Z,16.03
2017-07-04T16:42:31.175Z,16.17
2017-07-04T16:44:59.243Z,15.83
2017-07-04T16:47:27.377Z,21.60
2017-07-04T16:49:55.698Z,12.80
2017-07-04T16:52:23.745Z,12.77
2017-07-04T16:54:52.193Z,15.73
2017-07-04T16:57:20.246Z,15.57
2017-07-04T16:59:48.317Z,17.10
2017-07-04T17:02:16.433Z,16.37
2017-07-04T17:04:44.515Z,18.70
2017-07-04T17:07:12.635Z,19.60
2017-07-04T17:09:40.700Z,14.67
2017-07-04T17:12:09.694Z,13.40
2017-07-04T17:14:37.781Z,14.43
2017-07-04T17:17:06.627Z,13.90
2017-07-04T17:19:34.727Z,13.50
2017-07-04T17:22:02.818Z,14.80
2017-07-04T17:24:31.648Z,15.13
2017-07-04T17:26:59.733Z,12.33
2017-07-04T17:29:28.590Z,13.17
2017-07-04T17:31:56.668Z,12.57
2017-07-04T17:34:25.243Z,13.97
2017-07-04T17:36:53.343Z,14.33
2017-07-04T17:39:22.199Z,14.10
2017-07-04T17:41:50.284Z,13.73
2017-07-04T17:44:18.832Z,14.20
2017-07-04T17:46:47.093Z,12.27
2017-07-04T17:49:15.227Z,19.57
2017-07-04T17:51:44.064Z,12.50
2017-07-04T17:54:12.152Z,16.13
2017-07-04T17:56:40.243Z,13.77
2017-07-04T17:59:08.377Z,14.23
2017-07-04T18:01:36.447Z,15.43
2017-07-04T18:04:04.524Z,11.60
2017-07-04T18:06:32.641Z,12.10
2017-07-04T18:09:00.721Z,12.97
2017-07-04T18:11:29.548Z,12.60
2017-07-04T18:13:57.644Z,11.67
2017-07-04T18:16:25.709Z,11.47
2017-07-04T18:18:53.849Z,13.27
2017-07-04T18:21:22.679Z,11.53
2017-07-04T18:23:50.772Z,12.90
2017-07-04T18:26:18.891Z,10.90
2017-07-04T18:28:46.960Z,12.17
2017-07-04T18:31:15.037Z,10.00
2017-07-04T18:33:43.124Z,10.30
2017-07-04T18:36:11.199Z,11.43
2017-07-04T18:38:39.270Z,11.27
2017-07-04T18:41:07.334Z,9.77
2017-07-04T18:43:35.412Z,10.33
2017-07-04T18:46:03.503Z,12.00
2017-07-04T18:48:31.564Z,11.23
2017-07-04T18:51:00.403Z,11.30
2017-07-04T18:53:28.499Z,10.20
2017-07-04T18:55:56.625Z,10.70
2017-07-04T18:58:25.445Z,11.20
2017-07-04T19:00:53.534Z,10.20
2017-07-04T19:03:21.629Z,12.90
2017-07-04T19:05:50.489Z,11.20
2017-07-04T19:08:18.596Z,11.07
2017-07-04T19:10:47.419Z,10.83
2017-07-04T19:13:15.503Z,10.87
2017-07-04T19:15:43.571Z,10.57
2017-07-04T19:18:11.663Z,11.03
2017-07-04T19:20:39.823Z,10.77
2017-07-04T19:23:07.869Z,10.87
2017-07-04T19:25:35.953Z,10.03
2017-07-04T19:28:04.019Z,11.63
2017-07-04T19:30:32.255Z,10.57
2017-07-04T19:33:00.364Z,11.03
2017-07-04T19:35:28.434Z,10.63
2017-07-04T19:37:56.557Z,10.30
2017-07-04T19:40:24.675Z,10.87
2017-07-04T19:42:52.688Z,10.00
2017-07-04T19:45:20.892Z,10.23
2017-07-04T19:47:48.965Z,10.90
2017-07-04T19:50:17.059Z,12.43
2017-07-04T19:52:45.151Z,11.53
2017-07-04T19:55:13.977Z,11.37
2017-07-04T19:57:42.068Z,10.10
2017-07-04T20:00:10.140Z,9.10
2017-07-04T20:02:38.275Z,9.70
2017-07-04T20:05:06.320Z,10.60
2017-07-04T20:07:35.155Z,10.40
2017-07-04T20:10:03.235Z,10.47
2017-07-04T20:12:31.347Z,11.27
2017-07-04T20:14:59.410Z,11.57
2017-07-04T20:17:27.475Z,11.90
2017-07-04T20:19:55.560Z,11.70
2017-07-04T20:22:23.627Z,11.80
2017-07-04T20:24:52.490Z,10.67
2017-07-04T20:27:20.560Z,10.40
2017-07-04T20:29:48.705Z,11.30
2017-07-04T20:32:16.749Z,13.07
2017-07-04T20:34:44.812Z,11.23
2017-07-04T20:37:12.880Z,11.27
2017-07-04T20:39:40.957Z,12.73
2017-07-04T20:42:09.087Z,10.87
2017-07-04T20:44:37.143Z,11.60
2017-07-04T20:47:06.001Z,11.13
2017-07-04T20:49:34.058Z,10.70
2017-07-04T20:52:02.160Z,14.83
2017-07-04T20:54:31.004Z,12.87
2017-07-04T20:56:59.072Z,12.47
2017-07-04T20:59:27.132Z,13.50
2017-07-04T21:01:55.218Z,12.77
2017-07-04T21:04:24.211Z,13.40
2017-07-04T21:06:52.296Z,14.23
2017-07-04T21:09:20.365Z,16.43
2017-07-04T21:11:48.456Z,13.07
2017-07-04T21:14:16.528Z,12.27
2017-07-04T21:16:44.600Z,11.83
2017-07-04T21:19:12.786Z,13.07
2017-07-04T21:21:41.435Z,13.30
2017-07-04T21:24:09.555Z,13.33
2017-07-04T21:26:37.621Z,13.17
2017-07-04T21:29:06.475Z,14.87
2017-07-04T21:31:34.563Z,13.70
2017-07-04T21:34:03.426Z,14.73
2017-07-04T21:36:31.495Z,15.87
2017-07-04T21:38:59.569Z,15.20
2017-07-04T21:41:27.647Z,14.53
2017-07-04T21:43:55.716Z,14.53
2017-07-04T21:46:23.793Z,16.13
2017-07-04T21:48:52.667Z,14.17
2017-07-04T21:51:20.787Z,15.00
2017-07-04T21:53:49.607Z,15.37
2017-07-04T21:56:17.777Z,14.37
2017-07-04T21:58:45.849Z,15.87
2017-07-04T22:01:14.852Z,18.07
2017-07-04T22:03:42.917Z,17.83
2017-07-04T22:06:10.992Z,19.47
2017-07-04T22:08:39.079Z,21.27
2017-07-04T22:11:07.156Z,18.47
2017-07-04T22:13:35.228Z,18.70
2017-07-04T22:16:04.220Z,18.37
2017-07-04T22:18:32.278Z,18.90
2017-07-04T22:21:00.357Z,18.97
2017-07-04T22:23:28.439Z,19.73
2017-07-04T22:25:57.284Z,18.03
2017-07-04T22:28:25.381Z,19.27
2017-07-04T22:30:53.461Z,18.63
2017-07-04T22:33:22.067Z,18.67
2017-07-04T22:35:51.887Z,17.90
2017-07-04T22:38:20.733Z,18.40
2017-07-04T22:40:48.831Z,17.60
2017-07-04T22:43:16.900Z,20.17
2017-07-04T22:45:44.962Z,18.03
2017-07-04T22:48:13.056Z,18.77
2017-07-04T22:50:41.880Z,19.60
2017-07-04T22:53:09.959Z,20.00
2017-07-04T22:55:38.054Z,17.90
2017-07-04T22:58:06.152Z,18.90
2017-07-04T23:00:35.016Z,19.10
2017-07-04T23:03:03.087Z,19.37
2017-07-04T23:05:31.176Z,18.90
2017-07-04T23:07:59.239Z,19.83
2017-07-04T23:10:27.879Z,18.93
2017-07-04T23:12:55.959Z,19.10
2017-07-04T23:15:24.043Z,21.10
2017-07-04T23:17:52.116Z,21.43
2017-07-04T23:20:20.191Z,19.77
2017-07-04T23:22:48.281Z,19.83
2017-07-04T23:25:16.343Z,23.63
2017-07-04T23:27:44.411Z,20.47
2017-07-04T23:30:12.717Z,20.37
2017-07-04T23:32:40.827Z,19.03
2017-07-04T23:35:09.643Z,19.87
2017-07-04T23:37:37.770Z,17.57
2017-07-04T23:40:06.635Z,19.53
2017-07-04T23:42:34.767Z,19.57
2017-07-04T23:45:02.983Z,19.90
2017-07-04T23:47:31.038Z,23.03
2017-07-04T23:49:59.127Z,19.63
2017-07-04T23:52:27.200Z,21.07
2017-07-04T23:54:55.268Z,21.00
2017-07-04T23:57:24.010Z,21.23
2017-07-04T23:59:52.083Z,22.27
